sensor_id;sensor_type;location;lat;lon;timestamp;pressure;altitude;pressure_sealevel;temperature;humidity
7052;BME280;3567;52.444;13.556;2024-01-15T00:00:04;98951.22;;;1.56;100.00
7052;BME280;3567;52.444;13.556;2024-01-15T00:02:29;98942.69;;;1.54;100.00
7052;BME280;3567;52.444;13.556;2024-01-15T00:04:55;98954.09;;;1.55;100.00
7052;BME280;3567;52.444;13.556;2024-01-15T00:07:20;98944.19;;;1.50;100.00
7052;BME280;3567;52.444;13.556;2024-01-15T00:09:45;98941.94;;;1.47;100.00
7052;BME280;3567;52.444;13.556;2024-01-15T00:12:11;98940.16;;;1.41;100.00
7052;BME280;3567;52.444;13.556;2024-01-15T00:14:36;98936.94;;;1.39;100.00
7052;BME280;3567;52.444;13.556;2024-01-15T00:17:02;98924.16;;;1.36;100.00
7052;BME280;3567;52.444;13.556;2024-01-15T00:19:27;98925.03;;;1.30;100.00
7052;BME280;3567;52.444;13.556;2024-01-15T00:21:52;98924.63;;;1.26;100.00
7052;BME280;3567;52.444;13.556;2024-01-15T00:24:18;98925.88;;;1.24;100.00
7052;BME280;3567;52.444;13.556;2024-01-15T00:26:44;98912.53;;;1.19;100.00
7052;BME280;3567;52.444;13.556;2024-01-15T00:29:10;98908.47;;;1.16;100.00
7052;BME280;3567;52.444;13.556;2024-01-15T00:31:35;98897.72;;;1.18;100.00
7052;BME280;3567;52.444;13.556;2024-01-15T00:34:01;98902.19;;;1.17;100.00
7052;BME280;3567;52.444;13.556;2024-01-15T00:36:26;98907.88;;;1.14;100.00
7052;BME280;3567;52.444;13.556;2024-01-15T00:38:53;98893.44;;;1.17;100.00
7052;BME280;3567;52.444;13.556;2024-01-15T00:41:18;98887.16;;;1.18;100.00
7052;BME280;3567;52.444;13.556;2024-01-15T00:43:44;98886.94;;;1.19;100.00
7052;BME280;3567;52.444;13.556;2024-01-15T00:46:10;98872.50;;;1.22;100.00
7052;BME280;3567;52.444;13.556;2024-01-15T00:48:36;98870.69;;;1.22;100.00
7052;BME280;3567;52.444;13.556;2024-01-15T00:51:01;98875.16;;;1.22;100.00
7052;BME280;3567;52.444;13.556;2024-01-15T00:53:26;98866.59;;;1.26;100.00
7052;BME280;3567;52.444;13.556;2024-01-15T00:55:52;98859.31;;;1.22;100.00
7052;BME280;3567;52.444;13.556;2024-01-15T00:58:18;98862.59;;;1.24;100.00
7052;BME280;3567;52.444;13.556;2024-01-15T01:00:44;98862.19;;;1.20;100.00
7052;BME280;3567;52.444;13.556;2024-01-15T01:03:09;98849.59;;;1.22;100.00
7052;BME280;3567;52.444;13.556;2024-01-15T01:05:34;98853.63;;;1.25;100.00
7052;BME280;3567;52.444;13.556;2024-01-15T01:08:00;98855.25;;;1.26;100.00
7052;BME280;3567;52.444;13.556;2024-01-15T01:10:25;98847.13;;;1.27;100.00
7052;BME280;3567;52.444;13.556;2024-01-15T01:12:51;98849.75;;;1.27;100.00
7052;BME280;3567;52.444;13.556;2024-01-15T01:15:17;98842.28;;;1.24;100.00
7052;BME280;3567;52.444;13.556;2024-01-15T01:17:42;98835.81;;;1.20;100.00
7052;BME280;3567;52.444;13.556;2024-01-15T01:20:08;98839.53;;;1.13;100.00
7052;BME280;3567;52.444;13.556;2024-01-15T01:22:34;98836.69;;;1.14;100.00
7052;BME280;3567;52.444;13.556;2024-01-15T01:25:00;98842.75;;;1.15;100.00
7052;BME280;3567;52.444;13.556;2024-01-15T01:27:25;98831.63;;;1.13;100.00
7052;BME280;3567;52.444;13.556;2024-01-15T01:29:50;98846.41;;;1.14;100.00
7052;BME280;3567;52.444;13.556;2024-01-15T01:32:17;98848.44;;;1.12;100.00
7052;BME280;3567;52.444;13.556;2024-01-15T01:34:42;98844.03;;;1.05;100.00
7052;BME280;3567;52.444;13.556;2024-01-15T01:37:08;98850.94;;;1.07;100.00
7052;BME280;3567;52.444;13.556;2024-01-15T01:39:34;98847.69;;;1.04;100.00
7052;BME280;3567;52.444;13.556;2024-01-15T01:41:59;98840.81;;;1.03;100.00
7052;BME280;3567;52.444;13.556;2024-01-15T01:44:24;98854.00;;;1.03;100.00
7052;BME280;3567;52.444;13.556;2024-01-15T01:46:50;98837.78;;;1.00;100.00
7052;BME280;3567;52.444;13.556;2024-01-15T01:49:15;98851.75;;;1.00;100.00
7052;BME280;3567;52.444;13.556;2024-01-15T01:51:41;98845.91;;;0.98;100.00
7052;BME280;3567;52.444;13.556;2024-01-15T01:54:07;98834.16;;;0.94;100.00
7052;BME280;3567;52.444;13.556;2024-01-15T01:56:35;98845.56;;;0.88;100.00
7052;BME280;3567;52.444;13.556;2024-01-15T01:59:01;98843.78;;;0.82;100.00
7052;BME280;3567;52.444;13.556;2024-01-15T02:01:28;98849.47;;;0.79;100.00
7052;BME280;3567;52.444;13.556;2024-01-15T02:03:53;98848.88;;;0.77;100.00
7052;BME280;3567;52.444;13.556;2024-01-15T02:06:22;98849.91;;;0.76;100.00
7052;BME280;3567;52.444;13.556;2024-01-15T02:08:48;98852.53;;;0.76;100.00
7052;BME280;3567;52.444;13.556;2024-01-15T02:11:13;98834.09;;;0.76;100.00
7052;BME280;3567;52.444;13.556;2024-01-15T02:13:39;98843.00;;;0.75;100.00
7052;BME280;3567;52.444;13.556;2024-01-15T02:16:05;98832.47;;;0.75;100.00
7052;BME280;3567;52.444;13.556;2024-01-15T02:18:40;98832.47;;;0.75;100.00
7052;BME280;3567;52.444;13.556;2024-01-15T02:21:05;98832.47;;;0.75;100.00
7052;BME280;3567;52.444;13.556;2024-01-15T02:23:30;98824.41;;;0.70;100.00
7052;BME280;3567;52.444;13.556;2024-01-15T02:25:56;98829.44;;;0.71;100.00
7052;BME280;3567;52.444;13.556;2024-01-15T02:28:21;98828.63;;;0.71;100.00
7052;BME280;3567;52.444;13.556;2024-01-15T02:30:47;98840.19;;;0.70;100.00
7052;BME280;3567;52.444;13.556;2024-01-15T02:33:12;98830.03;;;0.73;100.00
7052;BME280;3567;52.444;13.556;2024-01-15T02:35:38;98826.59;;;0.73;100.00
7052;BME280;3567;52.444;13.556;2024-01-15T02:38:07;98830.66;;;0.75;100.00
7052;BME280;3567;52.444;13.556;2024-01-15T02:40:33;98826.97;;;0.76;100.00
7052;BME280;3567;52.444;13.556;2024-01-15T02:42:59;98823.31;;;0.77;100.00
7052;BME280;3567;52.444;13.556;2024-01-15T02:45:24;98823.91;;;0.79;100.00
7052;BME280;3567;52.444;13.556;2024-01-15T02:47:50;98809.75;;;0.74;100.00
7052;BME280;3567;52.444;13.556;2024-01-15T02:50:15;98802.88;;;0.73;100.00
7052;BME280;3567;52.444;13.556;2024-01-15T02:52:42;98810.78;;;0.73;100.00
7052;BME280;3567;52.444;13.556;2024-01-15T02:55:07;98819.06;;;0.76;100.00
7052;BME280;3567;52.444;13.556;2024-01-15T02:57:33;98803.03;;;0.78;100.00
7052;BME280;3567;52.444;13.556;2024-01-15T02:59:58;98800.41;;;0.78;100.00
7052;BME280;3567;52.444;13.556;2024-01-15T03:02:24;98798.63;;;0.72;100.00
7052;BME280;3567;52.444;13.556;2024-01-15T03:04:49;98794.34;;;0.77;100.00
7052;BME280;3567;52.444;13.556;2024-01-15T03:07:15;98796.16;;;0.77;100.00
7052;BME280;3567;52.444;13.556;2024-01-15T03:09:40;98800.81;;;0.82;100.00
7052;BME280;3567;52.444;13.556;2024-01-15T03:12:06;98811.72;;;0.85;100.00
7052;BME280;3567;52.444;13.556;2024-01-15T03:14:31;98808.50;;;0.83;100.00
7052;BME280;3567;52.444;13.556;2024-01-15T03:16:57;98807.84;;;0.88;100.00
7052;BME280;3567;52.444;13.556;2024-01-15T03:19:22;98812.09;;;0.89;100.00
7052;BME280;3567;52.444;13.556;2024-01-15T03:21:48;98790.22;;;0.88;100.00
7052;BME280;3567;52.444;13.556;2024-01-15T03:24:13;98790.22;;;0.88;100.00
7052;BME280;3567;52.444;13.556;2024-01-15T03:26:39;98792.44;;;0.91;100.00
7052;BME280;3567;52.444;13.556;2024-01-15T03:29:04;98798.88;;;0.95;100.00
7052;BME280;3567;52.444;13.556;2024-01-15T03:31:29;98799.91;;;0.94;100.00
7052;BME280;3567;52.444;13.556;2024-01-15T03:33:55;98787.56;;;0.88;100.00
7052;BME280;3567;52.444;13.556;2024-01-15T03:36:20;98790.59;;;0.92;100.00
7052;BME280;3567;52.444;13.556;2024-01-15T03:38:46;98790.59;;;0.92;100.00
7052;BME280;3567;52.444;13.556;2024-01-15T03:41:11;98789.34;;;0.94;100.00
7052;BME280;3567;52.444;13.556;2024-01-15T03:43:37;98790.53;;;0.98;100.00
7052;BME280;3567;52.444;13.556;2024-01-15T03:46:03;98792.00;;;0.94;100.00
7052;BME280;3567;52.444;13.556;2024-01-15T03:48:29;98780.41;;;0.95;100.00
7052;BME280;3567;52.444;13.556;2024-01-15T03:50:55;98777.78;;;0.95;100.00
7052;BME280;3567;52.444;13.556;2024-01-15T03:53:20;98780.81;;;0.99;100.00
7052;BME280;3567;52.444;13.556;2024-01-15T03:55:46;98780.00;;;0.98;100.00
7052;BME280;3567;52.444;13.556;2024-01-15T03:58:11;98775.13;;;1.02;100.00
7052;BME280;3567;52.444;13.556;2024-01-15T04:00:36;98764.56;;;1.02;100.00
7052;BME280;3567;52.444;13.556;2024-01-15T04:03:02;98768.59;;;1.04;100.00
7052;BME280;3567;52.444;13.556;2024-01-15T04:05:27;98755.19;;;1.06;100.00
7052;BME280;3567;52.444;13.556;2024-01-15T04:07:52;98754.59;;;1.04;100.00
7052;BME280;3567;52.444;13.556;2024-01-15T04:10:18;98743.03;;;1.05;100.00
7052;BME280;3567;52.444;13.556;2024-01-15T04:12:43;98745.03;;;1.10;100.00
7052;BME280;3567;52.444;13.556;2024-01-15T04:15:11;98749.09;;;1.05;100.00
7052;BME280;3567;52.444;13.556;2024-01-15T04:17:37;98740.19;;;1.07;100.00
7052;BME280;3567;52.444;13.556;2024-01-15T04:20:03;98730.06;;;1.03;100.00
7052;BME280;3567;52.444;13.556;2024-01-15T04:22:28;98733.28;;;1.05;100.00
7052;BME280;3567;52.444;13.556;2024-01-15T04:24:53;98725.38;;;1.05;100.00
7052;BME280;3567;52.444;13.556;2024-01-15T04:27:19;98725.38;;;1.05;100.00
7052;BME280;3567;52.444;13.556;2024-01-15T04:29:44;98726.41;;;1.04;100.00
7052;BME280;3567;52.444;13.556;2024-01-15T04:32:09;98726.00;;;1.08;100.00
7052;BME280;3567;52.444;13.556;2024-01-15T04:34:35;98716.81;;;1.10;100.00
7052;BME280;3567;52.444;13.556;2024-01-15T04:37:00;98732.66;;;1.10;100.00
7052;BME280;3567;52.444;13.556;2024-01-15T04:39:26;98732.41;;;1.12;100.00
7052;BME280;3567;52.444;13.556;2024-01-15T04:41:51;98731.84;;;1.10;100.00
7052;BME280;3567;52.444;13.556;2024-01-15T04:44:16;98727.16;;;1.12;100.00
7052;BME280;3567;52.444;13.556;2024-01-15T04:46:42;98729.13;;;1.16;100.00
7052;BME280;3567;52.444;13.556;2024-01-15T04:49:09;98724.09;;;1.15;100.00
7052;BME280;3567;52.444;13.556;2024-01-15T04:51:34;98720.41;;;1.16;100.00
7052;BME280;3567;52.444;13.556;2024-01-15T04:54:00;98708.84;;;1.17;100.00
7052;BME280;3567;52.444;13.556;2024-01-15T04:56:25;98704.41;;;1.17;100.00
7052;BME280;3567;52.444;13.556;2024-01-15T04:58:50;98710.09;;;1.14;100.00
7052;BME280;3567;52.444;13.556;2024-01-15T05:01:16;98695.50;;;1.12;100.00
7052;BME280;3567;52.444;13.556;2024-01-15T05:03:42;98704.25;;;1.12;100.00
7052;BME280;3567;52.444;13.556;2024-01-15T05:06:08;98710.53;;;1.11;100.00
7052;BME280;3567;52.444;13.556;2024-01-15T05:08:34;98704.25;;;1.12;100.00
7052;BME280;3567;52.444;13.556;2024-01-15T05:10:59;98707.69;;;1.13;100.00
7052;BME280;3567;52.444;13.556;2024-01-15T05:13:25;98704.81;;;1.14;100.00
7052;BME280;3567;52.444;13.556;2024-01-15T05:15:50;98716.97;;;1.15;100.00
7052;BME280;3567;52.444;13.556;2024-01-15T05:18:16;98716.75;;;1.17;100.00
7052;BME280;3567;52.444;13.556;2024-01-15T05:20:42;98723.59;;;1.24;100.00
7052;BME280;3567;52.444;13.556;2024-01-15T05:23:07;98720.34;;;1.22;100.00
7052;BME280;3567;52.444;13.556;2024-01-15T05:25:33;98716.34;;;1.20;100.00
7052;BME280;3567;52.444;13.556;2024-01-15T05:27:58;98713.28;;;1.23;100.00
7052;BME280;3567;52.444;13.556;2024-01-15T05:30:24;98722.56;;;1.25;100.00
7052;BME280;3567;52.444;13.556;2024-01-15T05:32:49;98709.59;;;1.24;100.00
7052;BME280;3567;52.444;13.556;2024-01-15T05:35:14;98711.00;;;1.26;100.00
7052;BME280;3567;52.444;13.556;2024-01-15T05:37:43;98709.00;;;1.22;100.00
7052;BME280;3567;52.444;13.556;2024-01-15T05:40:09;98710.03;;;1.21;100.00
7052;BME280;3567;52.444;13.556;2024-01-15T05:42:34;98710.63;;;1.23;100.00
7052;BME280;3567;52.444;13.556;2024-01-15T05:45:00;98700.66;;;1.25;100.00
7052;BME280;3567;52.444;13.556;2024-01-15T05:47:27;98686.69;;;1.24;100.00
7052;BME280;3567;52.444;13.556;2024-01-15T05:49:54;98693.78;;;1.24;100.00
7052;BME280;3567;52.444;13.556;2024-01-15T05:52:20;98684.47;;;1.21;100.00
7052;BME280;3567;52.444;13.556;2024-01-15T05:54:47;98678.53;;;1.26;100.00
7052;BME280;3567;52.444;13.556;2024-01-15T05:57:12;98694.38;;;1.26;100.00
7052;BME280;3567;52.444;13.556;2024-01-15T05:59:37;98681.56;;;1.29;100.00
7052;BME280;3567;52.444;13.556;2024-01-15T06:02:03;98688.22;;;1.32;100.00
7052;BME280;3567;52.444;13.556;2024-01-15T06:04:28;98686.75;;;1.36;100.00
7052;BME280;3567;52.444;13.556;2024-01-15T06:06:54;98690.41;;;1.35;100.00
7052;BME280;3567;52.444;13.556;2024-01-15T06:09:19;98706.53;;;1.27;100.00
7052;BME280;3567;52.444;13.556;2024-01-15T06:11:44;98697.22;;;1.24;100.00
7052;BME280;3567;52.444;13.556;2024-01-15T06:14:09;98700.94;;;1.17;100.00
7052;BME280;3567;52.444;13.556;2024-01-15T06:16:35;98691.41;;;1.16;100.00
7052;BME280;3567;52.444;13.556;2024-01-15T06:19:00;98695.50;;;1.12;100.00
7052;BME280;3567;52.444;13.556;2024-01-15T06:21:25;98685.56;;;1.14;100.00
7052;BME280;3567;52.444;13.556;2024-01-15T06:23:51;98695.88;;;1.15;100.00
7052;BME280;3567;52.444;13.556;2024-01-15T06:26:16;98687.75;;;1.17;100.00
7052;BME280;3567;52.444;13.556;2024-01-15T06:28:42;98693.03;;;1.17;100.00
7052;BME280;3567;52.444;13.556;2024-01-15T06:31:07;98682.47;;;1.17;100.00
7052;BME280;3567;52.444;13.556;2024-01-15T06:33:33;98688.13;;;1.20;100.00
7052;BME280;3567;52.444;13.556;2024-01-15T06:35:58;98688.94;;;1.21;100.00
7052;BME280;3567;52.444;13.556;2024-01-15T06:38:23;98693.19;;;1.22;100.00
7052;BME280;3567;52.444;13.556;2024-01-15T06:40:50;98694.22;;;1.21;100.00
7052;BME280;3567;52.444;13.556;2024-01-15T06:43:17;98704.75;;;1.21;100.00
7052;BME280;3567;52.444;13.556;2024-01-15T06:45:43;98706.22;;;1.17;100.00
7052;BME280;3567;52.444;13.556;2024-01-15T06:48:08;98691.78;;;1.19;100.00
7052;BME280;3567;52.444;13.556;2024-01-15T06:50:34;98701.53;;;1.19;100.00
7052;BME280;3567;52.444;13.556;2024-01-15T06:52:59;98703.16;;;1.20;100.00
7052;BME280;3567;52.444;13.556;2024-01-15T06:55:25;98702.72;;;1.23;100.00
7052;BME280;3567;52.444;13.556;2024-01-15T06:57:51;98700.25;;;1.28;100.00
7052;BME280;3567;52.444;13.556;2024-01-15T07:00:17;98698.41;;;1.28;100.00
7052;BME280;3567;52.444;13.556;2024-01-15T07:02:44;98704.66;;;1.34;100.00
7052;BME280;3567;52.444;13.556;2024-01-15T07:05:10;98699.56;;;1.33;100.00
7052;BME280;3567;52.444;13.556;2024-01-15T07:07:36;98704.19;;;1.37;100.00
7052;BME280;3567;52.444;13.556;2024-01-15T07:10:01;98704.78;;;1.39;100.00
7052;BME280;3567;52.444;13.556;2024-01-15T07:12:29;98701.13;;;1.40;100.00
7052;BME280;3567;52.444;13.556;2024-01-15T07:14:54;98699.53;;;1.39;100.00
7052;BME280;3567;52.444;13.556;2024-01-15T07:17:20;98698.84;;;1.44;100.00
7052;BME280;3567;52.444;13.556;2024-01-15T07:19:46;98690.72;;;1.45;100.00
7052;BME280;3567;52.444;13.556;2024-01-15T07:22:11;98704.50;;;1.47;100.00
7052;BME280;3567;52.444;13.556;2024-01-15T07:24:37;98709.34;;;1.50;100.00
7052;BME280;3567;52.444;13.556;2024-01-15T07:27:02;98713.00;;;1.49;100.00
7052;BME280;3567;52.444;13.556;2024-01-15T07:29:30;98721.06;;;1.54;100.00
7052;BME280;3567;52.444;13.556;2024-01-15T07:31:55;98716.53;;;1.62;100.00
7052;BME280;3567;52.444;13.556;2024-01-15T07:34:20;98725.47;;;1.61;100.00
7052;BME280;3567;52.444;13.556;2024-01-15T07:36:47;98730.75;;;1.61;100.00
7052;BME280;3567;52.444;13.556;2024-01-15T07:39:12;98748.34;;;1.67;100.00
7052;BME280;3567;52.444;13.556;2024-01-15T07:41:39;98746.94;;;1.64;100.00
7052;BME280;3567;52.444;13.556;2024-01-15T07:44:05;98746.13;;;1.64;100.00
7052;BME280;3567;52.444;13.556;2024-01-15T07:46:30;98743.50;;;1.64;100.00
7052;BME280;3567;52.444;13.556;2024-01-15T07:48:55;98748.78;;;1.64;100.00
7052;BME280;3567;52.444;13.556;2024-01-15T07:51:24;98759.06;;;1.72;100.00
7052;BME280;3567;52.444;13.556;2024-01-15T07:53:50;98765.78;;;1.68;100.00
7052;BME280;3567;52.444;13.556;2024-01-15T07:56:15;98756.75;;;1.75;100.00
7052;BME280;3567;52.444;13.556;2024-01-15T07:58:46;98748.03;;;1.75;100.00
7052;BME280;3567;52.444;13.556;2024-01-15T08:01:11;98748.66;;;1.77;100.00
7052;BME280;3567;52.444;13.556;2024-01-15T08:03:37;98766.66;;;1.80;100.00
7052;BME280;3567;52.444;13.556;2024-01-15T08:06:03;98760.97;;;1.83;100.00
7052;BME280;3567;52.444;13.556;2024-01-15T08:08:28;98757.72;;;1.81;100.00
7052;BME280;3567;52.444;13.556;2024-01-15T08:10:54;98761.53;;;1.85;100.00
7052;BME280;3567;52.444;13.556;2024-01-15T08:13:19;98760.97;;;1.83;100.00
7052;BME280;3567;52.444;13.556;2024-01-15T08:15:46;98758.56;;;1.81;100.00
7052;BME280;3567;52.444;13.556;2024-01-15T08:18:11;98735.38;;;1.83;100.00
7052;BME280;3567;52.444;13.556;2024-01-15T08:20:37;98754.06;;;1.82;100.00
7052;BME280;3567;52.444;13.556;2024-01-15T08:23:03;98748.94;;;1.87;100.00
7052;BME280;3567;52.444;13.556;2024-01-15T08:25:28;98754.38;;;1.92;100.00
7052;BME280;3567;52.444;13.556;2024-01-15T08:27:55;98757.59;;;1.94;100.00
7052;BME280;3567;52.444;13.556;2024-01-15T08:30:21;98773.66;;;1.93;100.00
7052;BME280;3567;52.444;13.556;2024-01-15T08:32:47;98774.72;;;1.85;100.00
7052;BME280;3567;52.444;13.556;2024-01-15T08:35:12;98765.72;;;1.93;100.00
7052;BME280;3567;52.444;13.556;2024-01-15T08:37:38;98757.16;;;1.97;100.00
7052;BME280;3567;52.444;13.556;2024-01-15T08:40:04;98759.41;;;1.94;100.00
7052;BME280;3567;52.444;13.556;2024-01-15T08:42:29;98769.31;;;1.98;100.00
7052;BME280;3567;52.444;13.556;2024-01-15T08:44:55;98764.47;;;1.95;100.00
7052;BME280;3567;52.444;13.556;2024-01-15T08:47:20;98758.16;;;1.96;100.00
7052;BME280;3567;52.444;13.556;2024-01-15T08:49:46;98754.72;;;1.96;100.00
7052;BME280;3567;52.444;13.556;2024-01-15T08:52:11;98763.44;;;1.96;100.00
7052;BME280;3567;52.444;13.556;2024-01-15T08:54:37;98775.50;;;1.92;100.00
7052;BME280;3567;52.444;13.556;2024-01-15T08:57:03;98768.72;;;1.96;100.00
7052;BME280;3567;52.444;13.556;2024-01-15T08:59:28;98772.78;;;1.99;100.00
7052;BME280;3567;52.444;13.556;2024-01-15T09:01:54;98776.22;;;1.99;100.00
7052;BME280;3567;52.444;13.556;2024-01-15T09:04:19;98774.16;;;2.01;100.00
7052;BME280;3567;52.444;13.556;2024-01-15T09:06:47;98769.47;;;2.03;100.00
7052;BME280;3567;52.444;13.556;2024-01-15T09:09:13;98781.41;;;2.06;100.00
7052;BME280;3567;52.444;13.556;2024-01-15T09:11:40;98774.28;;;2.06;100.00
7052;BME280;3567;52.444;13.556;2024-01-15T09:14:05;98778.78;;;2.06;100.00
7052;BME280;3567;52.444;13.556;2024-01-15T09:16:31;98786.78;;;1.99;100.00
7052;BME280;3567;52.444;13.556;2024-01-15T09:18:56;98785.66;;;2.07;100.00
7052;BME280;3567;52.444;13.556;2024-01-15T09:21:25;98793.94;;;2.10;100.00
7052;BME280;3567;52.444;13.556;2024-01-15T09:23:50;98791.88;;;2.13;100.00
7052;BME280;3567;52.444;13.556;2024-01-15T09:26:17;98791.47;;;2.16;100.00
7052;BME280;3567;52.444;13.556;2024-01-15T09:28:43;98794.66;;;2.18;100.00
7052;BME280;3567;52.444;13.556;2024-01-15T09:31:08;98804.81;;;2.21;100.00
7052;BME280;3567;52.444;13.556;2024-01-15T09:33:33;98809.28;;;2.20;100.00
7052;BME280;3567;52.444;13.556;2024-01-15T09:36:03;98813.78;;;2.20;100.00
7052;BME280;3567;52.444;13.556;2024-01-15T09:38:31;98804.22;;;2.19;100.00
7052;BME280;3567;52.444;13.556;2024-01-15T09:40:57;98812.59;;;2.16;100.00
7052;BME280;3567;52.444;13.556;2024-01-15T09:43:22;98824.34;;;2.20;100.00
7052;BME280;3567;52.444;13.556;2024-01-15T09:45:49;98821.22;;;2.23;100.00
7052;BME280;3567;52.444;13.556;2024-01-15T09:48:15;98818.03;;;2.21;100.00
7052;BME280;3567;52.444;13.556;2024-01-15T09:50:42;98807.69;;;2.19;100.00
7052;BME280;3567;52.444;13.556;2024-01-15T09:53:08;98810.53;;;2.18;100.00
7052;BME280;3567;52.444;13.556;2024-01-15T09:55:36;98806.13;;;2.12;100.00
7052;BME280;3567;52.444;13.556;2024-01-15T09:58:02;98805.31;;;2.11;100.00
7052;BME280;3567;52.444;13.556;2024-01-15T10:00:28;98804.38;;;2.05;100.00
7052;BME280;3567;52.444;13.556;2024-01-15T10:02:55;98793.72;;;2.12;100.00
7052;BME280;3567;52.444;13.556;2024-01-15T10:05:21;98787.78;;;2.17;100.00
7052;BME280;3567;52.444;13.556;2024-01-15T10:07:47;98794.38;;;2.26;100.00
7052;BME280;3567;52.444;13.556;2024-01-15T10:10:15;98783.16;;;2.30;100.00
7052;BME280;3567;52.444;13.556;2024-01-15T10:12:41;98797.53;;;2.34;100.00
7052;BME280;3567;52.444;13.556;2024-01-15T10:15:09;98792.16;;;2.41;100.00
7052;BME280;3567;52.444;13.556;2024-01-15T10:17:37;98783.78;;;2.44;100.00
7052;BME280;3567;52.444;13.556;2024-01-15T10:20:08;98790.22;;;2.48;100.00
7052;BME280;3567;52.444;13.556;2024-01-15T10:22:33;98774.94;;;2.50;100.00
7052;BME280;3567;52.444;13.556;2024-01-15T10:24:59;98786.94;;;2.53;100.00
7052;BME280;3567;52.444;13.556;2024-01-15T10:27:24;98781.53;;;2.59;100.00
7052;BME280;3567;52.444;13.556;2024-01-15T10:29:49;98787.19;;;2.63;100.00
7052;BME280;3567;52.444;13.556;2024-01-15T10:32:15;98786.63;;;2.61;100.00
7052;BME280;3567;52.444;13.556;2024-01-15T10:34:40;98774.66;;;2.58;100.00
7052;BME280;3567;52.444;13.556;2024-01-15T10:37:09;98776.63;;;2.63;100.00
7052;BME280;3567;52.444;13.556;2024-01-15T10:39:34;98777.56;;;2.69;100.00
7052;BME280;3567;52.444;13.556;2024-01-15T10:42:00;98779.75;;;2.72;100.00
7052;BME280;3567;52.444;13.556;2024-01-15T10:44:25;98779.16;;;2.70;100.00
7052;BME280;3567;52.444;13.556;2024-01-15T10:46:51;98786.53;;;2.68;100.00
7052;BME280;3567;52.444;13.556;2024-01-15T10:49:19;98774.69;;;2.70;100.00
7052;BME280;3567;52.444;13.556;2024-01-15T10:51:47;98771.69;;;2.67;100.00
7052;BME280;3567;52.444;13.556;2024-01-15T10:54:13;98776.38;;;2.65;100.00
7052;BME280;3567;52.444;13.556;2024-01-15T10:56:39;98772.56;;;2.60;100.00
7052;BME280;3567;52.444;13.556;2024-01-15T10:59:04;98762.38;;;2.64;100.00
7052;BME280;3567;52.444;13.556;2024-01-15T11:01:30;98759.28;;;2.67;100.00
7052;BME280;3567;52.444;13.556;2024-01-15T11:03:56;98766.66;;;2.77;100.00
7052;BME280;3567;52.444;13.556;2024-01-15T11:06:24;98774.50;;;2.83;100.00
7052;BME280;3567;52.444;13.556;2024-01-15T11:08:51;98768.97;;;2.85;100.00
7052;BME280;3567;52.444;13.556;2024-01-15T11:11:17;98764.84;;;2.89;100.00
7052;BME280;3567;52.444;13.556;2024-01-15T11:13:43;98772.13;;;2.94;100.00
7052;BME280;3567;52.444;13.556;2024-01-15T11:16:13;98772.56;;;3.02;99.87
7052;BME280;3567;52.444;13.556;2024-01-15T11:21:25;98767.78;;;3.34;98.48
7052;BME280;3567;52.444;13.556;2024-01-15T11:24:01;98771.69;;;3.32;96.54
7052;BME280;3567;52.444;13.556;2024-01-15T11:26:38;98770.19;;;3.24;97.66
7052;BME280;3567;52.444;13.556;2024-01-15T11:31:59;98783.50;;;3.06;97.18
7052;BME280;3567;52.444;13.556;2024-01-15T11:37:15;98781.78;;;3.00;98.02
7052;BME280;3567;52.444;13.556;2024-01-15T11:39:42;98789.59;;;2.95;98.59
7052;BME280;3567;52.444;13.556;2024-01-15T11:42:12;98783.94;;;2.91;98.39
7052;BME280;3567;52.444;13.556;2024-01-15T11:44:38;98790.50;;;2.88;98.66
7052;BME280;3567;52.444;13.556;2024-01-15T11:47:08;98792.47;;;2.93;99.98
7052;BME280;3567;52.444;13.556;2024-01-15T11:52:22;98788.63;;;2.77;100.00
7052;BME280;3567;52.444;13.556;2024-01-15T12:00:10;98799.19;;;2.47;100.00
7052;BME280;3567;52.444;13.556;2024-01-15T12:02:37;98800.19;;;2.34;100.00
7052;BME280;3567;52.444;13.556;2024-01-15T12:05:02;98793.34;;;2.27;100.00
7052;BME280;3567;52.444;13.556;2024-01-15T12:07:28;98792.19;;;2.23;100.00
7052;BME280;3567;52.444;13.556;2024-01-15T12:09:53;98795.47;;;2.18;100.00
7052;BME280;3567;52.444;13.556;2024-01-15T12:15:07;98801.06;;;2.10;100.00
7052;BME280;3567;52.444;13.556;2024-01-15T12:17:34;98812.66;;;2.09;100.00
7052;BME280;3567;52.444;13.556;2024-01-15T12:20:00;98807.16;;;2.10;100.00
7052;BME280;3567;52.444;13.556;2024-01-15T12:22:25;98816.13;;;2.09;100.00
7052;BME280;3567;52.444;13.556;2024-01-15T12:24:52;98807.16;;;2.10;100.00
7052;BME280;3567;52.444;13.556;2024-01-15T12:27:18;98809.00;;;2.10;100.00
7052;BME280;3567;52.444;13.556;2024-01-15T12:29:43;98817.72;;;2.10;100.00
7052;BME280;3567;52.444;13.556;2024-01-15T12:32:09;98811.63;;;2.10;100.00
7052;BME280;3567;52.444;13.556;2024-01-15T12:34:34;98811.41;;;2.12;100.00
7052;BME280;3567;52.444;13.556;2024-01-15T12:37:00;98821.16;;;2.11;100.00
7052;BME280;3567;52.444;13.556;2024-01-15T12:39:25;98816.25;;;2.15;100.00
7052;BME280;3567;52.444;13.556;2024-01-15T12:41:51;98814.19;;;2.17;100.00
7052;BME280;3567;52.444;13.556;2024-01-15T12:44:16;98802.03;;;2.16;100.00
7052;BME280;3567;52.444;13.556;2024-01-15T12:46:42;98815.66;;;2.13;100.00
7052;BME280;3567;52.444;13.556;2024-01-15T12:49:08;98811.78;;;2.15;100.00
7052;BME280;3567;52.444;13.556;2024-01-15T12:51:34;98819.47;;;2.17;100.00
7052;BME280;3567;52.444;13.556;2024-01-15T12:54:00;98821.09;;;2.18;100.00
7052;BME280;3567;52.444;13.556;2024-01-15T12:56:25;98819.94;;;2.14;100.00
7052;BME280;3567;52.444;13.556;2024-01-15T12:58:50;98826.91;;;2.08;100.00
7052;BME280;3567;52.444;13.556;2024-01-15T13:01:16;98828.56;;;2.02;100.00
7052;BME280;3567;52.444;13.556;2024-01-15T13:03:42;98839.28;;;1.89;100.00
7052;BME280;3567;52.444;13.556;2024-01-15T13:06:07;98849.69;;;1.84;100.00
7052;BME280;3567;52.444;13.556;2024-01-15T13:08:32;98851.53;;;1.83;100.00
7052;BME280;3567;52.444;13.556;2024-01-15T13:10:58;98837.75;;;1.81;100.00
7052;BME280;3567;52.444;13.556;2024-01-15T13:13:23;98851.28;;;1.85;100.00
7052;BME280;3567;52.444;13.556;2024-01-15T13:15:49;98852.72;;;1.88;100.00
7052;BME280;3567;52.444;13.556;2024-01-15T13:18:14;98857.13;;;1.94;100.00
7052;BME280;3567;52.444;13.556;2024-01-15T13:20:39;98846.69;;;1.99;100.00
7052;BME280;3567;52.444;13.556;2024-01-15T13:23:05;98852.63;;;1.94;100.00